PWSweather.com
Personal Weather Stations
Station Observations
DW0826
Near, Fish Camp, CA 93623

NearFish Camp, CA 93623

Lat: 37.454233, Lon: -119.64568

Elevation: 4960

Station Type: Davis VantagePro2

Latest ConditionsUpdated 2:00:07 PM PST Saturday, Feb 23, 2019
Currently Today's Max Today's Min Today's Average
Temperature 37.1°F2.8°C 38.9°F3.8°C 23.9°F-4.5°C 30.1°F-1.1°C
Dew Point 30.5°F-0.8°C 30.9°F-0.6°C 17.5°F-8.1°C 23.0°F-5.0°C
Winds 1.0 mph E1.6 kmh E 8.0 mph -12.9 kmh - - 2.6 mph 4.2 kmh
Wind Gusts 11.0 mph17.7 kmh 12.0 mph19.3 kmh - -
Humidity 77% 90% 56% 76%
Pressure 30.53 in1033.9 mb 30.58 in1035.6 mb 30.46 in1031.5 mb -
Precipitation - 0.30 in7.6 mm - -
Hour Temp Dew Point Humidity Winds Wind Gusts Pressure Precip Precip Rate Daily Precip Total
02:00 PM 37.1°F2.8°C 30.5°F-0.8°C 77% 1.0 mph E1.6 kmh E 11.0 mph17.7 kmh 30.53 in1033.9 mb 0.08 in2.0 mm 0.00 in0.0 mm 0.30 in7.6 mm
01:30 PM 38.9°F3.8°C 30.9°F-0.6°C 73% 2.0 mph SSE3.2 kmh SSE 12.0 mph19.3 kmh 30.53 in1033.9 mb 0.09 in2.3 mm 0.00 in0.0 mm 0.27 in6.9 mm
01:00 PM 38.7°F3.7°C 30.1°F-1.1°C 71% 8.0 mph SE12.9 kmh SE 10.0 mph16.1 kmh 30.54 in1034.2 mb 0.09 in2.3 mm 0.00 in0.0 mm 0.22 in5.6 mm
12:30 PM 37.7°F3.2°C 29.5°F-1.4°C 72% 2.0 mph SE3.2 kmh SE 8.0 mph12.9 kmh 30.54 in1034.2 mb 0.09 in2.3 mm 0.06 in1.5 mm 0.18 in4.6 mm
12:00 PM 37.0°F2.8°C 29.8°F-1.2°C 75% 4.0 mph ESE6.4 kmh ESE 8.0 mph12.9 kmh 30.55 in1034.5 mb 0.06 in1.5 mm 0.04 in1.0 mm 0.13 in3.3 mm
11:30 AM 36.0°F2.2°C 28.8°F-1.8°C 75% 3.0 mph SSE4.8 kmh SSE 11.0 mph17.7 kmh 30.57 in1035.2 mb 0.04 in1.0 mm 0.00 in0.0 mm 0.09 in2.3 mm
11:00 AM 37.0°F2.8°C 27.0°F-2.8°C 67% 5.0 mph SE8.0 kmh SE 10.0 mph16.1 kmh 30.56 in1034.9 mb 0.04 in1.0 mm 0.00 in0.0 mm 0.07 in1.8 mm
10:30 AM 36.7°F2.6°C 22.4°F-5.3°C 56% 1.0 mph ESE1.6 kmh ESE 6.0 mph9.7 kmh 30.57 in1035.2 mb 0.04 in1.0 mm 0.02 in0.5 mm 0.05 in1.3 mm
10:00 AM 35.4°F1.9°C 24.0°F-4.4°C 63% 2.0 mph NE3.2 kmh NE 4.0 mph6.4 kmh 30.57 in1035.2 mb 0.03 in0.8 mm 0.04 in1.0 mm 0.03 in0.8 mm
09:30 AM 33.8°F1.0°C 24.3°F-4.3°C 68% 3.0 mph NE4.8 kmh NE 5.0 mph8.0 kmh 30.58 in1035.6 mb 0.01 in0.3 mm 0.02 in0.5 mm 0.01 in0.3 mm
09:00 AM 32.0°F0.0°C 21.2°F-6.0°C 64% 2.0 mph N3.2 kmh N 3.0 mph4.8 kmh 30.57 in1035.2 mb 0.00 in0.0 mm 0.00 in0.0 mm 0.00 in0.0 mm
08:30 AM 31.2°F-0.4°C 19.7°F-6.8°C 62% 2.0 mph NNW3.2 kmh NNW 6.0 mph9.7 kmh 30.55 in1034.5 mb 0.00 in0.0 mm 0.00 in0.0 mm 0.00 in0.0 mm
08:00 AM 27.9°F-2.3°C 19.4°F-7.0°C 70% 2.0 mph NW3.2 kmh NW 5.0 mph8.0 kmh 30.53 in1033.9 mb 0.00 in0.0 mm 0.00 in0.0 mm 0.00 in0.0 mm
07:30 AM 27.9°F-2.3°C 18.7°F-7.4°C 68% 4.0 mph NNW6.4 kmh NNW 10.0 mph16.1 kmh 30.52 in1033.5 mb 0.00 in0.0 mm 0.00 in0.0 mm 0.00 in0.0 mm
07:00 AM 24.8°F-4.0°C 18.0°F-7.8°C 75% 6.0 mph NW9.7 kmh NW 10.0 mph16.1 kmh 30.52 in1033.5 mb 0.00 in0.0 mm 0.00 in0.0 mm 0.00 in0.0 mm
06:30 AM 24.0°F-4.4°C 17.5°F-8.1°C 76% 2.0 mph W3.2 kmh W 8.0 mph12.9 kmh 30.51 in1033.2 mb 0.00 in0.0 mm 0.00 in0.0 mm 0.00 in0.0 mm
06:00 AM 24.9°F-3.9°C 18.1°F-7.7°C 75% 3.0 mph NW4.8 kmh NW 6.0 mph9.7 kmh 30.51 in1033.2 mb 0.00 in0.0 mm 0.00 in0.0 mm 0.00 in0.0 mm
05:30 AM 26.4°F-3.1°C 18.2°F-7.7°C 71% 3.0 mph NW4.8 kmh NW 10.0 mph16.1 kmh 30.51 in1033.2 mb 0.00 in0.0 mm 0.00 in0.0 mm 0.00 in0.0 mm
05:00 AM 24.7°F-4.1°C 19.1°F-7.2°C 79% 5.0 mph NW8.0 kmh NW 8.0 mph12.9 kmh 30.51 in1033.2 mb 0.00 in0.0 mm 0.00 in0.0 mm 0.00 in0.0 mm
04:30 AM 23.9°F-4.5°C 20.3°F-6.5°C 86% 2.0 mph NNW3.2 kmh NNW 5.0 mph8.0 kmh 30.49 in1032.5 mb 0.00 in0.0 mm 0.00 in0.0 mm 0.00 in0.0 mm
04:00 AM 24.9°F-3.9°C 21.8°F-5.7°C 88% Calm Calm 7.0 mph11.3 kmh 30.49 in1032.5 mb 0.00 in0.0 mm 0.00 in0.0 mm 0.00 in0.0 mm
03:30 AM 26.3°F-3.2°C 23.7°F-4.6°C 90% 2.0 mph NW3.2 kmh NW 3.0 mph4.8 kmh 30.49 in1032.5 mb 0.00 in0.0 mm 0.00 in0.0 mm 0.00 in0.0 mm
03:00 AM 26.9°F-2.8°C 24.3°F-4.3°C 90% 1.0 mph WSW1.6 kmh WSW 3.0 mph4.8 kmh 30.50 in1032.8 mb 0.00 in0.0 mm 0.00 in0.0 mm 0.00 in0.0 mm
02:30 AM 26.1°F-3.3°C 23.0°F-5.0°C 88% 2.0 mph W3.2 kmh W 3.0 mph4.8 kmh 30.50 in1032.8 mb 0.00 in0.0 mm 0.00 in0.0 mm 0.00 in0.0 mm
02:00 AM 26.6°F-3.0°C 22.9°F-5.1°C 86% 1.0 mph W1.6 kmh W 3.0 mph4.8 kmh 30.50 in1032.8 mb 0.00 in0.0 mm 0.00 in0.0 mm 0.00 in0.0 mm
01:30 AM 25.7°F-3.5°C 21.8°F-5.7°C 85% Calm Calm 3.0 mph4.8 kmh 30.50 in1032.8 mb 0.00 in0.0 mm 0.00 in0.0 mm 0.00 in0.0 mm
01:00 AM 26.3°F-3.2°C 21.2°F-6.0°C 81% 2.0 mph WNW3.2 kmh WNW 3.0 mph4.8 kmh 30.49 in1032.5 mb 0.00 in0.0 mm 0.00 in0.0 mm 0.00 in0.0 mm
12:30 AM 26.7°F-2.9°C 20.4°F-6.4°C 77% Calm Calm 7.0 mph11.3 kmh 30.48 in1032.2 mb 0.00 in0.0 mm 0.00 in0.0 mm 0.00 in0.0 mm
12:00 AM 26.1°F-3.3°C 21.6°F-5.8°C 83% 5.0 mph NW8.0 kmh NW 8.0 mph12.9 kmh 30.46 in1031.5 mb 0.00 in0.0 mm 0.00 in0.0 mm 0.11 in2.8 mm